ěÝzenÝ letovÚho provozu ╚eskÚ republiky
Letiste: LKKB Aktualizace: 23.11.2020 18:57:23  UTC
 METAR LKKB 23.11. 19:00 ...
METAR LKKB 231900Z 24004KT 210V270 CAVOK 02/M00 Q1029 NOSIG RMK BLU BLU=
 TAF LKKB 23.11. 17:00 ...
TAF LKKB 231700Z 2318/2418 27008KT CAVOK      BECMG 2322/2400 22004KT 4000 BR SCT006      BECMG 2402/2404 0800 FZFG VV002      TEMPO 2404/2409 0300 FZFG VV001      BECMG 2409/2411 11002KT 3000 BR SCT008      BECMG 2411/2413 9000 SCT012      BECMG 2416/2418 5000 BR BKN004=